Monomotapa — IQ4855 — position and weather

sailwx.info

Track history (hours):
 
Tides and Currents Weather Stations Pressure Air Temp Water Temp Dewpoint Dewpoint Depression Visibility Wind Speed Wind Dir Waves Ship Positions

Monomotapa

Last reported at 2017-Nov-23 04:28 UTC. Time now 2017-Dec-18 22:31 UTC.
Position N 28°31' W 015°53'.
Warning: this ship's position is 25 days out of date.

Length 15 m.

Type: Sailing vessel. MMSI: 247206490.

Date/timePositionNaut miles runAvg speedWind from/ knotsBaromVisibWave heightAir tempDewpointWater temp
2017-Nov-23 04:28N 28°31' W 015°53'4 6.0
2017-Nov-23 03:44N 28°32' W 015°48'4 5.9
2017-Nov-23 03:06N 28°32' W 015°44'1 6.0
2017-Nov-23 02:56N 28°32' W 015°43'3 6.0
2017-Nov-23 02:26N 28°32' W 015°39'3 6.0
2017-Nov-23 01:54N 28°32' W 015°36'2 5.9
2017-Nov-23 01:30N 28°33' W 015°33'3 5.9
2017-Nov-23 01:01N 28°33' W 015°30'3 5.8
2017-Nov-23 00:31N 28°33' W 015°26'3 5.8
2017-Nov-23 00:00N 28°33' W 015°23'3 5.7
2017-Nov-22 23:30N 28°34' W 015°20'3 5.4
2017-Nov-22 23:00N 28°34' W 015°17'3 5.2
2017-Nov-22 22:30N 28°35' W 015°14'2 4.0
2017-Nov-22 22:00N 28°35' W 015°12'2 3.9
2017-Nov-22 21:30N 28°35' W 015°09'2 3.6
2017-Nov-22 20:59N 28°35' W 015°07'2 4.7
2017-Nov-22 20:29N 28°36' W 015°05'3 5.1
2017-Nov-22 19:58N 28°36' W 015°02'3 5.5
2017-Nov-22 19:27N 28°36' W 014°59'  
Track history (hours):
 
Tides and Currents Weather Stations Pressure Air Temp Water Temp Dewpoint Dewpoint Depression Visibility Wind Speed Wind Dir Waves Ship Positions

Monomotapa

Last reported at 2017-Nov-23 04:28 UTC. Time now 2017-Dec-18 22:31 UTC.
Position N 28°31' W 015°53'.
Warning: this ship's position is 25 days out of date.

Length 15 m.

Type: Sailing vessel. MMSI: 247206490.

Date/timePositionNaut miles runAvg speedWind from/ knotsBaromVisibWave heightAir tempDewpointWater temp
2017-Nov-23 04:28N 28°31' W 015°53'4 6.0
2017-Nov-23 03:44N 28°32' W 015°48'4 5.9
2017-Nov-23 03:06N 28°32' W 015°44'1 6.0
2017-Nov-23 02:56N 28°32' W 015°43'3 6.0
2017-Nov-23 02:26N 28°32' W 015°39'3 6.0
2017-Nov-23 01:54N 28°32' W 015°36'2 5.9
2017-Nov-23 01:30N 28°33' W 015°33'3 5.9
2017-Nov-23 01:01N 28°33' W 015°30'3 5.8
2017-Nov-23 00:31N 28°33' W 015°26'3 5.8
2017-Nov-23 00:00N 28°33' W 015°23'3 5.7
2017-Nov-22 23:30N 28°34' W 015°20'3 5.4
2017-Nov-22 23:00N 28°34' W 015°17'3 5.2
2017-Nov-22 22:30N 28°35' W 015°14'2 4.0
2017-Nov-22 22:00N 28°35' W 015°12'2 3.9
2017-Nov-22 21:30N 28°35' W 015°09'2 3.6
2017-Nov-22 20:59N 28°35' W 015°07'2 4.7
2017-Nov-22 20:29N 28°36' W 015°05'3 5.1
2017-Nov-22 19:58N 28°36' W 015°02'3 5.5
2017-Nov-22 19:27N 28°36' W 014°59'  

Dump ship's entire track history